createdAt,value
2018-12-05T00:01:50.294Z,81.10
2018-12-05T00:04:18.524Z,81.20
2018-12-05T00:06:46.662Z,81.20
2018-12-05T00:09:14.819Z,81.40
2018-12-05T00:11:43.091Z,81.80
2018-12-05T00:14:11.364Z,81.10
2018-12-05T00:16:39.615Z,81.20
2018-12-05T00:19:07.870Z,81.60
2018-12-05T00:21:36.135Z,81.70
2018-12-05T00:24:04.538Z,82.30
2018-12-05T00:26:32.715Z,82.80
2018-12-05T00:29:00.985Z,82.50
2018-12-05T00:31:29.263Z,82.60
2018-12-05T00:33:57.515Z,82.80
2018-12-05T00:36:25.756Z,82.90
2018-12-05T00:38:53.874Z,82.80
2018-12-05T00:41:22.159Z,82.80
2018-12-05T00:43:50.415Z,82.80
2018-12-05T00:46:18.610Z,82.30
2018-12-05T00:48:46.878Z,82.20
2018-12-05T00:51:15.077Z,82.50
2018-12-05T00:53:43.368Z,82.80
2018-12-05T00:56:11.639Z,83.20
2018-12-05T00:58:39.890Z,83.40
2018-12-05T01:01:08.234Z,83.80
2018-12-05T01:03:36.559Z,83.80
2018-12-05T01:06:04.812Z,83.80
2018-12-05T01:08:33.101Z,83.60
2018-12-05T01:11:01.308Z,83.60
2018-12-05T01:13:29.563Z,84.00
2018-12-05T01:15:57.806Z,84.50
2018-12-05T01:18:26.111Z,85.40
2018-12-05T01:20:54.332Z,85.70
2018-12-05T01:23:22.604Z,86.00
2018-12-05T01:25:50.786Z,86.40
2018-12-05T01:28:18.995Z,86.40
2018-12-05T01:30:47.141Z,86.50
2018-12-05T01:33:16.372Z,86.70
2018-12-05T01:35:44.779Z,87.00
2018-12-05T01:38:13.045Z,87.00
2018-12-05T01:40:41.438Z,87.30
2018-12-05T01:43:09.667Z,88.00
2018-12-05T01:45:37.952Z,88.10
2018-12-05T01:48:06.220Z,88.40
2018-12-05T01:50:34.504Z,88.40
2018-12-05T01:53:02.781Z,88.90
2018-12-05T01:55:33.611Z,88.70
2018-12-05T01:58:01.887Z,88.70
2018-12-05T02:00:30.200Z,88.90
2018-12-05T02:02:58.703Z,88.70
2018-12-05T02:05:26.982Z,88.60
2018-12-05T02:07:55.174Z,88.60
2018-12-05T02:10:23.395Z,88.80
2018-12-05T02:12:51.618Z,89.00
2018-12-05T02:15:19.858Z,89.50
2018-12-05T02:17:48.170Z,89.70
2018-12-05T02:20:16.401Z,89.90
2018-12-05T02:22:44.624Z,90.10
2018-12-05T02:25:12.911Z,90.00
2018-12-05T02:27:41.118Z,89.80
2018-12-05T02:30:09.430Z,89.30
2018-12-05T02:32:37.739Z,89.10
2018-12-05T02:35:06.041Z,89.30
2018-12-05T02:37:34.432Z,89.30
2018-12-05T02:40:02.678Z,89.20
2018-12-05T02:42:30.935Z,89.10
2018-12-05T02:44:59.235Z,89.30
2018-12-05T02:47:27.588Z,89.20
2018-12-05T02:49:55.866Z,89.30
2018-12-05T02:52:24.196Z,88.90
2018-12-05T02:54:52.492Z,89.00
2018-12-05T02:57:20.770Z,88.90
2018-12-05T02:59:48.978Z,88.80
2018-12-05T03:02:17.267Z,89.20
2018-12-05T03:04:45.566Z,89.30
2018-12-05T03:07:13.777Z,89.10
2018-12-05T03:09:42.086Z,89.20
2018-12-05T03:12:10.353Z,89.00
2018-12-05T03:14:38.715Z,89.10
2018-12-05T03:17:07.003Z,88.90
2018-12-05T03:19:35.280Z,88.40
2018-12-05T03:22:03.566Z,88.60
2018-12-05T03:24:31.818Z,88.80
2018-12-05T03:27:00.151Z,88.80
2018-12-05T03:29:28.398Z,88.70
2018-12-05T03:31:56.665Z,88.90
2018-12-05T03:34:25.083Z,89.30
2018-12-05T03:36:53.365Z,89.20
2018-12-05T03:39:21.582Z,89.30
2018-12-05T03:41:49.847Z,89.30
2018-12-05T03:44:18.057Z,89.40
2018-12-05T03:46:46.370Z,89.30
2018-12-05T03:49:14.615Z,89.40
2018-12-05T03:51:42.784Z,90.20
2018-12-05T03:54:11.121Z,89.90
2018-12-05T03:56:39.371Z,89.90
2018-12-05T03:59:07.565Z,89.60
2018-12-05T04:01:35.765Z,89.50
2018-12-05T04:04:04.065Z,90.10
2018-12-05T04:06:32.391Z,89.60
2018-12-05T04:09:00.594Z,89.10
2018-12-05T04:11:28.867Z,88.80
2018-12-05T04:13:57.086Z,88.90
2018-12-05T04:16:25.384Z,88.80
2018-12-05T04:18:53.640Z,88.90
2018-12-05T04:21:21.915Z,89.70
2018-12-05T04:23:50.129Z,89.20
2018-12-05T04:26:18.458Z,89.60
2018-12-05T04:28:46.802Z,89.80
2018-12-05T04:31:15.052Z,89.70
2018-12-05T04:33:43.296Z,89.50
2018-12-05T04:36:11.592Z,89.70
2018-12-05T04:38:39.844Z,90.00
2018-12-05T04:41:08.110Z,90.50
2018-12-05T04:43:36.333Z,90.20
2018-12-05T04:46:04.747Z,90.00
2018-12-05T04:48:33.023Z,90.10
2018-12-05T04:51:01.278Z,89.50
2018-12-05T04:53:29.527Z,88.80
2018-12-05T04:55:57.869Z,88.20
2018-12-05T04:58:26.128Z,88.40
2018-12-05T05:00:54.506Z,88.60
2018-12-05T05:03:22.735Z,88.30
2018-12-05T05:05:51.107Z,88.50
2018-12-05T05:08:19.307Z,88.30
2018-12-05T05:10:47.579Z,88.30
2018-12-05T05:13:15.856Z,88.20
2018-12-05T05:15:43.994Z,89.00
2018-12-05T05:18:12.113Z,88.40
2018-12-05T05:20:40.491Z,88.90
2018-12-05T05:23:08.714Z,89.10
2018-12-05T05:25:36.934Z,88.70
2018-12-05T05:28:05.225Z,88.90
2018-12-05T05:30:33.447Z,90.10
2018-12-05T05:33:01.760Z,89.30
2018-12-05T05:35:30.095Z,88.80
2018-12-05T05:37:58.431Z,88.80
2018-12-05T05:40:26.726Z,88.00
2018-12-05T05:42:54.900Z,88.20
2018-12-05T05:45:23.165Z,88.00
2018-12-05T05:47:51.544Z,88.00
2018-12-05T05:50:20.642Z,88.20
2018-12-05T05:52:49.150Z,88.20
2018-12-05T05:55:17.430Z,88.00
2018-12-05T05:57:45.610Z,88.20
2018-12-05T06:00:13.857Z,88.10
2018-12-05T06:02:42.011Z,88.20
2018-12-05T06:05:10.398Z,88.00
2018-12-05T06:07:38.917Z,88.00
2018-12-05T06:10:07.704Z,88.10
2018-12-05T06:12:36.463Z,87.70
2018-12-05T06:15:06.113Z,88.80
2018-12-05T06:17:34.306Z,88.50
2018-12-05T06:20:02.571Z,88.20
2018-12-05T06:22:30.791Z,87.80
2018-12-05T06:24:59.151Z,87.80
2018-12-05T06:27:27.361Z,87.70
2018-12-05T06:29:55.625Z,87.40
2018-12-05T06:32:23.878Z,87.50
2018-12-05T06:34:52.079Z,87.30
2018-12-05T06:37:20.391Z,86.70
2018-12-05T06:39:48.668Z,86.40
2018-12-05T06:42:16.881Z,86.50
2018-12-05T06:44:45.136Z,87.30
2018-12-05T06:47:13.517Z,87.40
2018-12-05T06:49:42.207Z,87.40
2018-12-05T06:52:10.878Z,87.30
2018-12-05T06:54:39.106Z,87.20
2018-12-05T06:57:07.445Z,87.20
2018-12-05T06:59:35.720Z,87.00
2018-12-05T07:02:04.087Z,87.00
2018-12-05T07:04:32.284Z,87.10
2018-12-05T07:07:00.560Z,86.70
2018-12-05T07:09:28.915Z,86.60
2018-12-05T07:11:57.228Z,87.30
2018-12-05T07:14:25.426Z,87.50
2018-12-05T07:16:53.693Z,88.00
2018-12-05T07:19:22.012Z,88.50
2018-12-05T07:21:50.590Z,88.40
2018-12-05T07:24:18.795Z,88.40
2018-12-05T07:26:47.044Z,88.80
2018-12-05T07:29:15.305Z,88.00
2018-12-05T07:31:43.567Z,87.60
2018-12-05T07:34:11.794Z,87.30
2018-12-05T07:36:40.047Z,87.30
2018-12-05T07:39:08.703Z,87.40
2018-12-05T07:41:37.282Z,87.50
2018-12-05T07:44:05.584Z,87.70
2018-12-05T07:46:33.836Z,87.40
2018-12-05T07:49:02.082Z,87.60
2018-12-05T07:51:30.424Z,88.10
2018-12-05T07:53:58.640Z,88.40
2018-12-05T07:56:26.895Z,87.80
2018-12-05T07:58:55.170Z,87.40
2018-12-05T08:01:23.453Z,87.20
2018-12-05T08:06:26.689Z,87.10
2018-12-05T08:08:54.918Z,87.30
2018-12-05T08:11:23.094Z,87.70
2018-12-05T08:13:51.323Z,87.80
2018-12-05T08:16:19.615Z,88.10
2018-12-05T08:18:47.898Z,88.20
2018-12-05T08:21:16.167Z,88.10
2018-12-05T08:23:44.370Z,88.10
2018-12-05T08:26:12.584Z,88.70
2018-12-05T08:28:40.806Z,88.00
2018-12-05T08:31:09.056Z,89.00
2018-12-05T08:33:37.337Z,89.40
2018-12-05T08:36:05.665Z,89.20
2018-12-05T08:38:33.850Z,88.60
2018-12-05T08:41:02.112Z,88.70
2018-12-05T08:43:30.417Z,87.00
2018-12-05T08:45:58.625Z,84.90
2018-12-05T08:48:26.864Z,84.50
2018-12-05T08:50:55.022Z,84.90
2018-12-05T08:53:23.392Z,84.00
2018-12-05T08:55:51.657Z,83.40
2018-12-05T08:58:19.968Z,83.50
2018-12-05T09:00:48.319Z,82.10
2018-12-05T09:03:16.581Z,80.70
2018-12-05T09:05:44.798Z,79.70
2018-12-05T09:08:13.083Z,78.10
2018-12-05T09:10:41.243Z,77.30
2018-12-05T09:13:09.495Z,71.60
2018-12-05T09:15:37.738Z,69.20
2018-12-05T09:18:05.988Z,67.10
2018-12-05T09:20:34.229Z,65.10
2018-12-05T09:23:02.934Z,63.10
2018-12-05T09:25:31.182Z,60.60
2018-12-05T09:27:59.580Z,56.20
2018-12-05T09:30:27.908Z,51.90
2018-12-05T09:32:56.829Z,50.20
2018-12-05T09:35:25.329Z,49.30
2018-12-05T09:37:53.527Z,45.90
2018-12-05T09:40:21.870Z,46.10
2018-12-05T09:42:50.133Z,40.40
2018-12-05T09:45:18.386Z,35.40
2018-12-05T09:47:46.719Z,34.10
2018-12-05T09:50:14.968Z,31.30
2018-12-05T09:52:43.213Z,27.70
2018-12-05T09:55:11.492Z,25.20
2018-12-05T09:57:39.715Z,17.90
2018-12-05T10:00:09.702Z,19.00
2018-12-05T10:02:37.971Z,14.70
2018-12-05T10:05:07.760Z,15.90
2018-12-05T10:07:36.013Z,12.50
2018-12-05T10:10:05.066Z,13.00
2018-12-05T10:12:33.312Z,11.00
2018-12-05T10:15:01.535Z,8.30
2018-12-05T10:17:29.801Z,8.80
2018-12-05T10:19:58.050Z,8.90
2018-12-05T10:22:26.354Z,9.00
2018-12-05T10:24:54.538Z,6.30
2018-12-05T10:27:22.808Z,7.00
2018-12-05T10:29:51.091Z,8.50
2018-12-05T10:32:19.371Z,5.50
2018-12-05T10:34:47.632Z,5.80
2018-12-05T10:37:15.849Z,7.30
2018-12-05T10:39:44.144Z,4.70
2018-12-05T10:42:12.391Z,4.70
2018-12-05T10:44:40.680Z,6.30
2018-12-05T10:47:08.983Z,5.10
2018-12-05T10:49:37.248Z,5.40
2018-12-05T10:52:05.516Z,5.30
2018-12-05T10:54:33.731Z,10.10
2018-12-05T10:57:01.944Z,6.80
2018-12-05T10:59:30.201Z,5.40
2018-12-05T11:02:03.708Z,10.70
2018-12-05T11:04:37.251Z,11.20
2018-12-05T11:07:11.596Z,14.80
2018-12-05T11:11:48.366Z,11.80
2018-12-05T11:14:21.995Z,13.40
2018-12-05T11:16:57.505Z,14.70
2018-12-05T11:19:31.080Z,13.60
2018-12-05T11:23:04.018Z,13.20
2018-12-05T11:25:32.323Z,10.80
2018-12-05T11:28:00.584Z,7.90
2018-12-05T11:30:28.792Z,13.10
2018-12-05T11:32:57.055Z,15.00
2018-12-05T11:35:25.346Z,16.00
2018-12-05T11:37:53.631Z,18.50
2018-12-05T11:40:21.833Z,19.30
2018-12-05T11:42:50.128Z,18.60
2018-12-05T11:45:18.358Z,16.90
2018-12-05T11:47:46.580Z,15.40
2018-12-05T11:50:14.874Z,15.00
2018-12-05T11:52:43.193Z,12.50
2018-12-05T11:55:11.801Z,12.10
2018-12-05T11:57:40.063Z,13.40
2018-12-05T12:00:08.595Z,14.20
2018-12-05T12:02:36.763Z,14.50
2018-12-05T12:05:05.085Z,18.00
2018-12-05T12:07:33.315Z,13.50
2018-12-05T12:10:01.587Z,15.60
2018-12-05T12:12:35.216Z,13.50
2018-12-05T12:15:09.622Z,14.40
2018-12-05T12:17:37.883Z,18.70
2018-12-05T12:20:06.194Z,18.60
2018-12-05T12:22:34.433Z,18.60
2018-12-05T12:25:02.704Z,14.10
2018-12-05T12:27:30.948Z,16.10
2018-12-05T12:29:59.142Z,16.30
2018-12-05T12:32:27.412Z,17.10
2018-12-05T12:34:55.686Z,19.70
2018-12-05T12:37:23.990Z,19.30
2018-12-05T12:39:52.225Z,20.80
2018-12-05T12:42:20.567Z,19.20
2018-12-05T12:44:48.872Z,20.00
2018-12-05T12:47:17.315Z,18.60
2018-12-05T12:49:45.556Z,18.20
2018-12-05T12:52:13.830Z,16.80
2018-12-05T12:54:42.086Z,17.00
2018-12-05T12:57:10.318Z,16.60
2018-12-05T12:59:38.602Z,16.60
2018-12-05T13:02:06.875Z,15.40
2018-12-05T13:04:35.199Z,16.00
2018-12-05T13:07:03.426Z,16.00
2018-12-05T13:09:31.617Z,14.70
2018-12-05T13:11:59.836Z,16.00
2018-12-05T13:14:28.062Z,16.50
2018-12-05T13:17:02.526Z,15.70
2018-12-05T13:19:30.730Z,14.40
2018-12-05T13:21:59.260Z,16.00
2018-12-05T13:24:27.500Z,16.60
2018-12-05T13:26:55.775Z,14.40
2018-12-05T13:29:23.915Z,14.60
2018-12-05T13:31:52.184Z,14.70
2018-12-05T13:34:20.443Z,16.60
2018-12-05T13:36:48.992Z,17.10
2018-12-05T13:39:17.233Z,16.50
2018-12-05T13:41:45.470Z,18.10
2018-12-05T13:44:13.654Z,19.70
2018-12-05T13:46:41.996Z,21.10
2018-12-05T13:49:10.276Z,23.60
2018-12-05T13:51:38.560Z,23.10
2018-12-05T13:54:06.983Z,24.80
2018-12-05T13:56:35.213Z,24.50
2018-12-05T13:59:03.439Z,26.00
2018-12-05T14:01:31.799Z,24.80
2018-12-05T14:04:00.094Z,24.60
2018-12-05T14:06:28.288Z,25.00
2018-12-05T14:08:56.499Z,25.40
2018-12-05T14:11:24.738Z,25.60
2018-12-05T14:13:52.974Z,25.40
2018-12-05T14:16:21.202Z,27.10
2018-12-05T14:18:49.382Z,26.80
2018-12-05T14:21:17.662Z,27.80
2018-12-05T14:23:46.018Z,28.40
2018-12-05T14:26:14.269Z,30.50
2018-12-05T14:28:42.550Z,30.30
2018-12-05T14:31:10.832Z,32.50
2018-12-05T14:33:39.003Z,33.60
2018-12-05T14:36:07.226Z,34.50
2018-12-05T14:38:35.487Z,36.40
2018-12-05T14:41:03.702Z,38.10
2018-12-05T14:43:32.028Z,40.20
2018-12-05T14:46:00.249Z,41.30
2018-12-05T14:48:28.579Z,45.30
2018-12-05T14:50:56.922Z,47.10
2018-12-05T14:53:25.151Z,47.70
2018-12-05T14:55:53.454Z,44.80
2018-12-05T14:58:21.738Z,44.70
2018-12-05T15:00:50.020Z,42.30
2018-12-05T15:03:18.334Z,40.30
2018-12-05T15:05:46.483Z,41.60
2018-12-05T15:08:14.663Z,40.40
2018-12-05T15:10:42.945Z,40.20
2018-12-05T15:13:11.142Z,43.60
2018-12-05T15:15:39.424Z,39.70
2018-12-05T15:18:07.651Z,38.60
2018-12-05T15:20:36.096Z,40.20
2018-12-05T15:23:04.388Z,39.90
2018-12-05T15:25:32.604Z,39.00
2018-12-05T15:28:00.860Z,40.10
2018-12-05T15:30:29.194Z,39.20
2018-12-05T15:32:57.396Z,39.70
2018-12-05T15:35:25.709Z,36.90
2018-12-05T15:37:54.099Z,37.30
2018-12-05T15:40:22.346Z,40.70
2018-12-05T15:42:50.770Z,37.70
2018-12-05T15:45:21.676Z,37.90
2018-12-05T15:47:49.357Z,34.90
2018-12-05T15:50:18.119Z,36.10
2018-12-05T15:52:46.699Z,40.20
2018-12-05T15:55:14.871Z,39.90
2018-12-05T15:57:43.130Z,41.10
2018-12-05T16:00:11.410Z,43.70
2018-12-05T16:02:39.684Z,46.50
2018-12-05T16:05:07.901Z,50.10
2018-12-05T16:07:36.139Z,53.10
2018-12-05T16:10:04.547Z,54.20
2018-12-05T16:12:32.778Z,55.50
2018-12-05T16:15:01.481Z,56.50
2018-12-05T16:17:29.778Z,57.70
2018-12-05T16:19:58.067Z,57.50
2018-12-05T16:22:26.332Z,53.60
2018-12-05T16:24:54.608Z,52.50
2018-12-05T16:27:22.884Z,52.80
2018-12-05T16:29:51.267Z,52.20
2018-12-05T16:32:19.551Z,52.00
2018-12-05T16:34:47.973Z,50.60
2018-12-05T16:37:16.211Z,47.40
2018-12-05T16:39:44.425Z,47.20
2018-12-05T16:42:12.672Z,47.40
2018-12-05T16:44:40.952Z,48.40
2018-12-05T16:47:09.203Z,51.10
2018-12-05T16:49:39.286Z,53.20
2018-12-05T16:52:07.719Z,55.10
2018-12-05T16:54:36.332Z,56.80
2018-12-05T16:57:04.620Z,57.80
2018-12-05T16:59:32.865Z,57.30
2018-12-05T17:02:01.139Z,57.30
2018-12-05T17:04:29.486Z,58.30
2018-12-05T17:06:57.744Z,58.70
2018-12-05T17:09:26.546Z,59.70
2018-12-05T17:11:55.084Z,60.10
2018-12-05T17:14:23.338Z,59.80
2018-12-05T17:16:51.598Z,59.70
2018-12-05T17:19:19.826Z,58.00
2018-12-05T17:21:48.067Z,57.40
2018-12-05T17:24:16.314Z,57.50
2018-12-05T17:26:44.578Z,57.90
2018-12-05T17:29:12.794Z,58.40
2018-12-05T17:31:41.028Z,59.40
2018-12-05T17:34:09.300Z,59.70
2018-12-05T17:36:37.535Z,60.60
2018-12-05T17:39:08.185Z,61.20
2018-12-05T17:41:36.402Z,61.90
2018-12-05T17:44:04.851Z,61.20
2018-12-05T17:46:33.201Z,62.30
2018-12-05T17:49:01.808Z,61.80
2018-12-05T17:51:30.131Z,60.50
2018-12-05T17:53:58.426Z,58.70
2018-12-05T17:56:28.310Z,59.10
2018-12-05T17:58:56.632Z,59.70
2018-12-05T18:01:24.866Z,59.50
2018-12-05T18:03:53.075Z,59.60
2018-12-05T18:06:21.297Z,59.60
2018-12-05T18:08:49.506Z,60.30
2018-12-05T18:11:17.704Z,57.70
2018-12-05T18:13:45.995Z,56.10
2018-12-05T18:16:14.603Z,54.30
2018-12-05T18:18:42.911Z,51.90
2018-12-05T18:21:11.175Z,49.70
2018-12-05T18:23:39.457Z,47.90
2018-12-05T18:26:07.707Z,47.30
2018-12-05T18:28:36.035Z,46.20
2018-12-05T18:31:04.264Z,47.10
2018-12-05T18:33:32.449Z,47.50
2018-12-05T18:36:00.791Z,46.70
2018-12-05T18:38:29.072Z,46.90
2018-12-05T18:40:57.325Z,47.70
2018-12-05T18:43:25.585Z,47.10
2018-12-05T18:45:55.518Z,49.00
2018-12-05T18:48:23.706Z,48.80
2018-12-05T18:50:51.956Z,48.40
2018-12-05T18:53:20.286Z,49.40
2018-12-05T18:55:48.521Z,48.80
2018-12-05T18:58:16.708Z,48.60
2018-12-05T19:00:44.956Z,50.00
2018-12-05T19:03:13.169Z,51.00
2018-12-05T19:05:41.670Z,51.30
2018-12-05T19:08:11.166Z,51.30
2018-12-05T19:10:39.484Z,51.60
2018-12-05T19:13:07.773Z,51.50
2018-12-05T19:15:35.985Z,51.90
2018-12-05T19:18:05.343Z,53.20
2018-12-05T19:20:33.890Z,53.10
2018-12-05T19:23:02.141Z,52.60
2018-12-05T19:25:30.355Z,51.70
2018-12-05T19:27:58.584Z,51.80
2018-12-05T19:30:26.866Z,51.00
2018-12-05T19:32:55.135Z,51.30
2018-12-05T19:35:23.306Z,50.90
2018-12-05T19:37:51.562Z,50.80
2018-12-05T19:40:19.831Z,50.20
2018-12-05T19:42:48.014Z,49.30
2018-12-05T19:45:16.231Z,49.10
2018-12-05T19:47:44.525Z,48.80
2018-12-05T19:50:12.782Z,48.80
2018-12-05T19:52:41.124Z,48.60
2018-12-05T19:55:09.697Z,48.50
2018-12-05T19:57:38.108Z,49.20
2018-12-05T20:00:08.343Z,49.30
2018-12-05T20:02:36.578Z,50.10
2018-12-05T20:05:05.439Z,49.70
2018-12-05T20:07:33.686Z,49.40
2018-12-05T20:10:01.910Z,50.30
2018-12-05T20:12:30.173Z,50.70
2018-12-05T20:14:58.472Z,50.70
2018-12-05T20:17:26.766Z,51.40
2018-12-05T20:19:54.992Z,51.10
2018-12-05T20:22:23.282Z,50.80
2018-12-05T20:24:51.579Z,51.30
2018-12-05T20:27:19.902Z,51.20
2018-12-05T20:29:48.060Z,51.80
2018-12-05T20:32:16.546Z,51.40
2018-12-05T20:34:44.779Z,51.30
2018-12-05T20:37:13.028Z,51.30
2018-12-05T20:39:41.336Z,50.90
2018-12-05T20:42:09.731Z,50.70
2018-12-05T20:44:37.958Z,51.10
2018-12-05T20:47:06.236Z,50.10
2018-12-05T20:49:34.562Z,49.40
2018-12-05T20:52:02.840Z,49.80
2018-12-05T20:54:31.160Z,49.30
2018-12-05T20:56:59.667Z,49.50
2018-12-05T20:59:27.913Z,49.30
2018-12-05T21:01:56.253Z,49.90
2018-12-05T21:04:24.544Z,49.30
2018-12-05T21:06:52.982Z,49.10
2018-12-05T21:09:21.330Z,48.70
2018-12-05T21:11:49.638Z,49.20
2018-12-05T21:14:18.031Z,49.40
2018-12-05T21:16:46.410Z,49.50
2018-12-05T21:19:15.004Z,49.10
2018-12-05T21:21:43.319Z,49.40
2018-12-05T21:24:11.799Z,48.80
2018-12-05T21:26:40.304Z,48.90
2018-12-05T21:29:08.740Z,47.90
2018-12-05T21:31:37.102Z,46.70
2018-12-05T21:34:05.426Z,47.50
2018-12-05T21:36:33.706Z,46.20
2018-12-05T21:39:02.011Z,45.90
2018-12-05T21:41:30.430Z,46.10
2018-12-05T21:43:59.044Z,46.30
2018-12-05T21:46:27.956Z,46.20
2018-12-05T21:48:56.400Z,46.00
2018-12-05T21:51:24.831Z,46.20
2018-12-05T21:53:53.109Z,45.90
2018-12-05T21:56:21.582Z,46.00
2018-12-05T21:58:50.031Z,46.60
2018-12-05T22:01:18.442Z,46.40
2018-12-05T22:03:46.958Z,46.00
2018-12-05T22:06:15.419Z,45.90
2018-12-05T22:08:44.513Z,46.60
2018-12-05T22:11:12.723Z,46.70
2018-12-05T22:13:41.292Z,46.10
2018-12-05T22:16:09.872Z,45.10
2018-12-05T22:18:38.105Z,44.80
2018-12-05T22:21:06.475Z,44.60
2018-12-05T22:23:34.740Z,45.30
2018-12-05T22:26:03.300Z,44.90
2018-12-05T22:28:31.752Z,45.90
2018-12-05T22:31:00.426Z,45.40
2018-12-05T22:33:28.795Z,45.40
2018-12-05T22:35:57.283Z,45.30
2018-12-05T22:38:25.770Z,45.60
2018-12-05T22:40:54.106Z,45.70
2018-12-05T22:43:22.283Z,45.70
2018-12-05T22:45:50.822Z,45.80
2018-12-05T22:48:19.166Z,44.70
2018-12-05T22:50:47.505Z,45.10
2018-12-05T22:53:16.119Z,44.00
2018-12-05T22:55:44.457Z,43.80
2018-12-05T22:58:12.840Z,42.70
2018-12-05T23:00:44.556Z,43.70
2018-12-05T23:03:12.790Z,42.40
2018-12-05T23:05:41.252Z,41.30
2018-12-05T23:08:09.651Z,41.00
2018-12-05T23:10:38.235Z,40.80
2018-12-05T23:13:46.496Z,41.30
2018-12-05T23:16:14.782Z,39.80
2018-12-05T23:18:43.134Z,39.50
2018-12-05T23:21:11.556Z,39.00
2018-12-05T23:23:39.819Z,39.20
2018-12-05T23:26:08.266Z,38.10
2018-12-05T23:28:36.660Z,37.20
2018-12-05T23:31:04.911Z,36.20
2018-12-05T23:33:33.153Z,35.60
2018-12-05T23:36:01.372Z,34.60
2018-12-05T23:38:29.635Z,34.00
2018-12-05T23:40:57.928Z,33.00
2018-12-05T23:43:26.105Z,33.00
2018-12-05T23:45:54.358Z,31.80
2018-12-05T23:48:22.644Z,31.90
2018-12-05T23:50:50.838Z,31.90
2018-12-05T23:53:19.109Z,30.30
2018-12-05T23:55:47.439Z,30.60
2018-12-05T23:58:15.643Z,29.00
